createdAt,value
2018-06-28T00:00:11.700Z,99.90
2018-06-28T00:02:40.906Z,99.90
2018-06-28T00:05:10.401Z,99.90
2018-06-28T00:07:39.828Z,99.90
2018-06-28T00:10:09.435Z,99.90
2018-06-28T00:12:38.734Z,99.90
2018-06-28T00:15:08.479Z,99.90
2018-06-28T00:20:07.052Z,99.90
2018-06-28T00:22:37.194Z,99.90
2018-06-28T00:25:06.478Z,99.90
2018-06-28T00:27:35.766Z,99.90
2018-06-28T00:30:05.503Z,99.90
2018-06-28T00:32:35.087Z,99.90
2018-06-28T00:35:04.254Z,99.90
2018-06-28T00:37:33.559Z,99.90
2018-06-28T00:40:05.835Z,99.90
2018-06-28T00:42:34.955Z,99.90
2018-06-28T00:45:04.102Z,99.90
2018-06-28T00:47:33.208Z,99.90
2018-06-28T00:50:02.304Z,99.90
2018-06-28T00:52:31.399Z,99.90
2018-06-28T00:55:00.499Z,99.90
2018-06-28T00:57:31.235Z,99.90
2018-06-28T01:00:00.349Z,99.90
2018-06-28T01:02:29.451Z,99.90
2018-06-28T01:04:58.590Z,99.90
2018-06-28T01:07:27.798Z,99.90
2018-06-28T01:09:56.938Z,99.90
2018-06-28T01:12:26.063Z,99.90
2018-06-28T01:17:24.151Z,99.90
2018-06-28T01:19:53.321Z,99.90
2018-06-28T01:22:22.418Z,99.90
2018-06-28T01:24:51.579Z,99.90
2018-06-28T01:27:20.754Z,99.90
2018-06-28T01:29:51.083Z,99.90
2018-06-28T01:32:20.206Z,99.90
2018-06-28T01:34:49.327Z,99.90
2018-06-28T01:37:18.724Z,99.90
2018-06-28T01:39:48.627Z,99.90
2018-06-28T01:44:25.439Z,99.90
2018-06-28T01:46:56.279Z,99.90
2018-06-28T01:49:25.885Z,99.90
2018-06-28T01:51:55.791Z,99.90
2018-06-28T01:54:25.339Z,99.90
2018-06-28T01:56:54.647Z,99.90
2018-06-28T01:59:23.791Z,99.90
2018-06-28T02:01:52.955Z,99.90
2018-06-28T02:04:22.063Z,99.90
2018-06-28T02:06:51.992Z,99.90
2018-06-28T02:09:21.076Z,99.90
2018-06-28T02:11:50.191Z,99.90
2018-06-28T02:14:19.323Z,99.90
2018-06-28T02:16:49.187Z,99.90
2018-06-28T02:19:19.134Z,99.90
2018-06-28T02:21:49.004Z,99.90
2018-06-28T02:24:18.234Z,99.90
2018-06-28T02:26:47.955Z,99.90
2018-06-28T02:29:17.080Z,99.90
2018-06-28T02:31:46.159Z,99.90
2018-06-28T02:34:15.238Z,99.90
2018-06-28T02:36:44.339Z,99.90
2018-06-28T02:39:13.419Z,99.90
2018-06-28T02:41:43.310Z,99.90
2018-06-28T02:44:12.466Z,99.90
2018-06-28T02:46:41.485Z,99.90
2018-06-28T02:49:10.659Z,99.90
2018-06-28T02:51:39.886Z,99.90
2018-06-28T02:54:10.380Z,99.90
2018-06-28T02:56:40.477Z,99.90
2018-06-28T02:59:10.611Z,99.90
2018-06-28T03:01:39.932Z,99.90
2018-06-28T03:04:09.194Z,99.90
2018-06-28T03:06:38.671Z,99.90
2018-06-28T03:09:10.674Z,99.90
2018-06-28T03:11:39.995Z,99.90
2018-06-28T03:14:09.416Z,99.90
2018-06-28T03:16:38.511Z,99.90
2018-06-28T03:19:07.655Z,99.90
2018-06-28T03:21:36.796Z,99.90
2018-06-28T03:24:05.892Z,99.90
2018-06-28T03:26:35.294Z,99.90
2018-06-28T03:29:04.377Z,99.90
2018-06-28T03:31:33.454Z,99.90
2018-06-28T03:34:02.603Z,99.90
2018-06-28T03:36:31.704Z,99.90
2018-06-28T03:39:09.738Z,99.90
2018-06-28T03:41:38.902Z,99.90
2018-06-28T03:44:08.362Z,99.90
2018-06-28T03:46:38.137Z,99.90
2018-06-28T03:49:07.591Z,99.90
2018-06-28T03:51:36.698Z,99.90
2018-06-28T03:54:06.440Z,99.90
2018-06-28T03:56:35.590Z,99.90
2018-06-28T03:59:04.813Z,99.90
2018-06-28T04:01:34.003Z,99.90
2018-06-28T04:04:03.158Z,99.90
2018-06-28T04:06:32.284Z,99.90
2018-06-28T04:09:01.372Z,99.90
2018-06-28T04:11:30.467Z,99.90
2018-06-28T04:13:59.807Z,99.90
2018-06-28T04:16:29.198Z,99.90
2018-06-28T04:18:59.499Z,99.90
2018-06-28T04:21:28.790Z,99.90
2018-06-28T04:23:58.115Z,99.90
2018-06-28T04:26:27.394Z,99.90
2018-06-28T04:28:56.562Z,99.90
2018-06-28T04:31:26.328Z,99.90
2018-06-28T04:33:56.447Z,99.90
2018-06-28T04:36:25.714Z,99.90
2018-06-28T04:38:55.022Z,99.90
2018-06-28T04:41:24.560Z,99.90
2018-06-28T04:43:54.043Z,99.90
2018-06-28T04:46:23.650Z,99.90
2018-06-28T04:48:52.926Z,99.90
2018-06-28T04:51:22.211Z,99.90
2018-06-28T04:53:52.063Z,99.90
2018-06-28T04:56:21.137Z,99.90
2018-06-28T04:58:50.218Z,99.90
2018-06-28T05:01:19.377Z,99.80
2018-06-28T05:03:48.407Z,99.90
2018-06-28T05:06:17.465Z,98.80
2018-06-28T05:08:47.468Z,97.40
2018-06-28T05:11:17.023Z,98.30
2018-06-28T05:16:15.996Z,99.90
2018-06-28T05:18:45.775Z,99.90
2018-06-28T05:21:15.047Z,99.90
2018-06-28T05:23:44.290Z,99.90
2018-06-28T05:26:14.459Z,99.90
2018-06-28T05:28:43.878Z,99.90
2018-06-28T05:31:13.555Z,99.90
2018-06-28T05:33:42.887Z,99.40
2018-06-28T05:36:12.099Z,99.40
2018-06-28T05:38:41.820Z,99.90
2018-06-28T05:41:10.924Z,99.90
2018-06-28T05:43:40.050Z,98.60
2018-06-28T05:46:09.182Z,95.80
2018-06-28T05:48:38.260Z,94.00
2018-06-28T05:51:07.466Z,92.00
2018-06-28T05:56:05.483Z,88.70
2018-06-28T05:58:34.599Z,86.30
2018-06-28T06:01:04.328Z,85.50
2018-06-28T06:03:33.691Z,82.40
2018-06-28T06:06:02.759Z,81.90
2018-06-28T06:08:31.855Z,84.10
2018-06-28T06:11:01.159Z,85.00
2018-06-28T06:13:30.283Z,82.60
2018-06-28T06:15:59.487Z,79.70
2018-06-28T06:18:28.751Z,80.70
2018-06-28T06:20:58.547Z,80.00
2018-06-28T06:23:27.807Z,80.30
2018-06-28T06:25:56.887Z,80.50
2018-06-28T06:28:26.183Z,82.10
2018-06-28T06:30:55.406Z,82.50
2018-06-28T06:33:25.116Z,81.10
2018-06-28T06:35:54.290Z,79.90
2018-06-28T06:38:23.507Z,78.80
2018-06-28T06:40:53.251Z,79.50
2018-06-28T06:43:23.153Z,78.80
2018-06-28T06:45:53.071Z,77.50
2018-06-28T06:48:23.007Z,76.20
2018-06-28T06:50:52.855Z,76.30
2018-06-28T06:53:22.850Z,74.40
2018-06-28T06:55:52.320Z,72.90
2018-06-28T06:58:21.954Z,74.40
2018-06-28T07:00:51.920Z,77.90
2018-06-28T07:03:21.898Z,77.90
2018-06-28T07:08:21.283Z,77.60
2018-06-28T07:10:50.406Z,77.00
2018-06-28T07:13:19.540Z,78.30
2018-06-28T07:15:48.687Z,76.60
2018-06-28T07:18:17.795Z,77.00
2018-06-28T07:20:47.409Z,78.20
2018-06-28T07:23:16.510Z,78.10
2018-06-28T07:25:45.783Z,78.60
2018-06-28T07:28:15.238Z,79.60
2018-06-28T07:30:44.959Z,80.00
2018-06-28T07:33:14.241Z,79.60
2018-06-28T07:35:44.203Z,80.20
2018-06-28T07:38:13.291Z,80.30
2018-06-28T07:40:42.375Z,81.30
2018-06-28T07:43:11.501Z,77.60
2018-06-28T07:45:40.567Z,77.70
2018-06-28T07:48:09.670Z,76.40
2018-06-28T07:50:38.795Z,75.10
2018-06-28T07:53:08.320Z,76.20
2018-06-28T07:55:37.780Z,76.80
2018-06-28T07:58:07.111Z,77.00
2018-06-28T08:00:36.470Z,75.90
2018-06-28T08:03:07.591Z,77.00
2018-06-28T08:05:37.414Z,79.10
2018-06-28T08:08:07.412Z,75.80
2018-06-28T08:13:07.110Z,74.50
2018-06-28T08:15:36.423Z,75.10
2018-06-28T08:18:06.376Z,74.50
2018-06-28T08:20:35.530Z,74.40
2018-06-28T08:23:04.627Z,74.90
2018-06-28T08:25:34.761Z,76.10
2018-06-28T08:28:03.857Z,77.30
2018-06-28T08:30:32.951Z,78.80
2018-06-28T08:33:02.355Z,78.20
2018-06-28T08:35:32.207Z,78.40
2018-06-28T08:38:01.975Z,77.10
2018-06-28T08:40:31.266Z,76.90
2018-06-28T08:43:00.516Z,78.30
2018-06-28T08:45:30.361Z,79.00
2018-06-28T08:48:00.278Z,80.50
2018-06-28T08:50:30.211Z,81.00
2018-06-28T08:52:59.935Z,81.50
2018-06-28T08:55:29.195Z,81.90
2018-06-28T08:57:59.265Z,82.50
2018-06-28T09:00:29.123Z,82.50
2018-06-28T09:02:58.944Z,83.00
2018-06-28T09:05:28.482Z,84.40
2018-06-28T09:07:57.571Z,85.20
2018-06-28T09:10:26.672Z,85.50
2018-06-28T09:12:56.071Z,85.70
2018-06-28T09:15:25.692Z,87.00
2018-06-28T09:17:55.002Z,86.20
2018-06-28T09:20:24.654Z,85.90
2018-06-28T09:22:54.017Z,84.60
2018-06-28T09:25:23.315Z,83.20
2018-06-28T09:27:52.614Z,81.90
2018-06-28T09:30:22.273Z,80.20
2018-06-28T09:32:51.606Z,75.60
2018-06-28T09:35:20.926Z,71.60
2018-06-28T09:37:50.330Z,71.80
2018-06-28T09:40:19.698Z,72.00
2018-06-28T09:42:49.505Z,74.00
2018-06-28T09:45:18.798Z,73.10
2018-06-28T09:47:48.427Z,71.20
2018-06-28T09:50:17.790Z,70.40
2018-06-28T09:52:47.082Z,70.00
2018-06-28T09:55:16.842Z,72.50
2018-06-28T09:57:46.397Z,71.50
2018-06-28T10:00:22.530Z,73.60
2018-06-28T10:02:51.767Z,75.30
2018-06-28T10:05:21.114Z,76.20
2018-06-28T10:07:50.558Z,76.50
2018-06-28T10:10:20.110Z,77.00
2018-06-28T10:12:50.474Z,78.80
2018-06-28T10:15:19.828Z,80.20
2018-06-28T10:17:48.946Z,81.50
2018-06-28T10:20:18.039Z,82.70
2018-06-28T10:22:47.134Z,82.10
2018-06-28T10:25:16.218Z,82.90
2018-06-28T10:27:45.339Z,85.00
2018-06-28T10:30:15.212Z,84.20
2018-06-28T10:32:44.427Z,86.40
2018-06-28T10:35:14.233Z,89.40
2018-06-28T10:37:43.363Z,91.40
2018-06-28T10:40:12.455Z,91.80
2018-06-28T10:42:42.327Z,92.50
2018-06-28T10:45:11.547Z,95.00
2018-06-28T10:47:41.425Z,93.30
2018-06-28T10:50:11.477Z,94.50
2018-06-28T10:52:40.803Z,94.50
2018-06-28T10:55:10.835Z,94.00
2018-06-28T10:57:40.286Z,94.30
2018-06-28T11:00:09.646Z,94.70
2018-06-28T11:02:38.998Z,95.60
2018-06-28T11:05:09.745Z,96.20
2018-06-28T11:07:39.480Z,99.90
2018-06-28T11:10:08.798Z,99.90
2018-06-28T11:12:38.063Z,99.90
2018-06-28T11:15:07.956Z,99.90
2018-06-28T11:17:37.886Z,99.90
2018-06-28T11:20:08.368Z,99.90
2018-06-28T11:22:37.455Z,99.90
2018-06-28T11:25:06.614Z,99.90
2018-06-28T11:27:35.738Z,99.90
2018-06-28T11:30:06.102Z,99.90
2018-06-28T11:32:35.778Z,99.90
2018-06-28T11:35:04.883Z,99.90
2018-06-28T11:37:34.211Z,99.90
2018-06-28T11:40:03.383Z,99.90
2018-06-28T11:42:32.947Z,99.90
2018-06-28T11:45:02.991Z,99.90
2018-06-28T11:47:32.386Z,99.90
2018-06-28T11:50:02.018Z,99.90
2018-06-28T11:52:31.886Z,99.90
2018-06-28T11:55:01.043Z,99.90
2018-06-28T11:57:30.187Z,99.90
2018-06-28T12:00:00.107Z,99.90
2018-06-28T12:02:29.215Z,99.90
2018-06-28T12:04:58.686Z,98.90
2018-06-28T12:07:27.824Z,98.60
2018-06-28T12:09:57.882Z,96.80
2018-06-28T12:12:28.150Z,96.50
2018-06-28T12:14:57.286Z,96.50
2018-06-28T12:17:26.370Z,96.30
2018-06-28T12:19:55.858Z,97.00
2018-06-28T12:22:25.048Z,97.40
2018-06-28T12:24:54.218Z,97.20
2018-06-28T12:27:23.476Z,98.30
2018-06-28T12:29:52.594Z,99.50
2018-06-28T12:32:21.658Z,99.90
2018-06-28T12:34:50.839Z,99.90
2018-06-28T12:39:50.752Z,99.90
2018-06-28T12:42:20.071Z,99.90
2018-06-28T12:44:49.690Z,99.90
2018-06-28T12:50:25.530Z,99.90
2018-06-28T12:52:58.652Z,99.90
2018-06-28T12:55:36.217Z,99.90
2018-06-28T12:58:05.864Z,99.90
2018-06-28T13:00:36.675Z,99.90
2018-06-28T13:03:05.971Z,99.90
2018-06-28T13:05:35.599Z,99.90
2018-06-28T13:08:04.819Z,99.90
2018-06-28T13:10:33.919Z,99.90
2018-06-28T13:13:03.452Z,99.90
2018-06-28T13:15:32.088Z,99.90
2018-06-28T13:20:29.258Z,99.90
2018-06-28T13:22:58.366Z,99.90
2018-06-28T13:25:27.475Z,99.90
2018-06-28T13:27:56.594Z,99.90
2018-06-28T13:30:27.435Z,99.90
2018-06-28T13:32:56.527Z,99.90
2018-06-28T13:35:25.610Z,99.90
2018-06-28T13:37:54.718Z,99.90
2018-06-28T13:40:24.134Z,99.90
2018-06-28T13:42:53.210Z,99.90
2018-06-28T13:45:22.420Z,99.90
2018-06-28T13:47:51.588Z,99.50
2018-06-28T13:50:21.506Z,98.90
2018-06-28T13:52:50.717Z,98.40
2018-06-28T13:55:19.879Z,97.60
2018-06-28T13:57:49.495Z,96.60
2018-06-28T14:00:21.402Z,96.40
2018-06-28T14:02:51.336Z,95.90
2018-06-28T14:05:20.627Z,96.20
2018-06-28T14:07:50.503Z,97.10
2018-06-28T14:10:20.821Z,98.70
2018-06-28T14:12:51.207Z,99.30
2018-06-28T14:15:20.362Z,99.70
2018-06-28T14:17:49.458Z,99.90
2018-06-28T14:20:18.594Z,99.90
2018-06-28T14:22:47.781Z,99.90
2018-06-28T14:25:17.561Z,99.90
2018-06-28T14:27:47.274Z,99.90
2018-06-28T14:30:17.157Z,99.90
2018-06-28T14:32:47.096Z,99.90
2018-06-28T14:35:17.058Z,99.90
2018-06-28T14:37:46.988Z,99.90
2018-06-28T14:40:16.818Z,99.90
2018-06-28T14:42:45.919Z,99.90
2018-06-28T14:45:15.450Z,99.90
2018-06-28T14:47:44.874Z,99.90
2018-06-28T14:50:13.970Z,99.90
2018-06-28T14:52:43.108Z,99.90
2018-06-28T14:55:12.974Z,99.90
2018-06-28T14:57:42.152Z,99.90
2018-06-28T15:00:11.246Z,99.90
2018-06-28T15:02:40.776Z,99.90
2018-06-28T15:05:10.259Z,99.90
2018-06-28T15:07:39.698Z,99.90
2018-06-28T15:10:09.439Z,99.90
2018-06-28T15:12:39.583Z,99.90
2018-06-28T15:15:09.013Z,99.90
2018-06-28T15:17:38.735Z,99.90
2018-06-28T15:20:08.213Z,99.90
2018-06-28T15:22:38.218Z,99.90
2018-06-28T15:25:08.030Z,99.90
2018-06-28T15:27:37.985Z,99.90
2018-06-28T15:32:36.430Z,99.90
2018-06-28T15:35:06.009Z,99.90
2018-06-28T15:37:35.419Z,99.90
2018-06-28T15:40:05.327Z,99.90
2018-06-28T15:42:34.947Z,99.90
2018-06-28T15:45:05.378Z,99.90
2018-06-28T15:47:35.189Z,99.90
2018-06-28T15:50:04.850Z,99.90
2018-06-28T15:52:33.958Z,99.90
2018-06-28T15:55:03.159Z,99.90
2018-06-28T15:57:32.353Z,99.90
2018-06-28T16:00:01.520Z,99.90
2018-06-28T16:02:30.702Z,99.90
2018-06-28T16:04:59.811Z,99.90
2018-06-28T16:07:28.936Z,99.90
2018-06-28T16:09:58.123Z,99.90
2018-06-28T16:12:27.288Z,99.90
2018-06-28T16:14:56.637Z,99.90
2018-06-28T16:17:25.766Z,99.90
2018-06-28T16:19:54.935Z,99.90
2018-06-28T16:22:25.042Z,99.90
2018-06-28T16:24:56.235Z,99.90
2018-06-28T16:27:25.380Z,99.90
2018-06-28T16:29:54.784Z,99.90
2018-06-28T16:32:24.062Z,99.90
2018-06-28T16:34:53.308Z,99.90
2018-06-28T16:37:22.893Z,99.90
2018-06-28T16:39:52.326Z,99.90
2018-06-28T16:42:22.123Z,99.90
2018-06-28T16:44:51.252Z,99.90
2018-06-28T16:47:20.341Z,99.90
2018-06-28T16:49:49.517Z,99.90
2018-06-28T16:52:18.911Z,99.90
2018-06-28T16:54:49.448Z,99.90
2018-06-28T16:57:19.160Z,99.90
2018-06-28T16:59:48.933Z,99.90
2018-06-28T17:02:18.277Z,99.90
2018-06-28T17:04:48.194Z,99.90
2018-06-28T17:07:18.655Z,99.90
2018-06-28T17:09:48.166Z,99.90
2018-06-28T17:12:17.982Z,99.90
2018-06-28T17:17:16.942Z,99.90
2018-06-28T17:19:46.363Z,99.90
2018-06-28T17:22:15.762Z,99.90
2018-06-28T17:24:45.111Z,99.90
2018-06-28T17:29:44.122Z,99.90
2018-06-28T17:32:13.478Z,99.90
2018-06-28T17:34:43.182Z,99.90
2018-06-28T17:37:12.999Z,99.90
2018-06-28T17:39:42.319Z,99.90
2018-06-28T17:42:11.755Z,99.90
2018-06-28T17:44:40.851Z,99.90
2018-06-28T17:47:10.527Z,99.90
2018-06-28T17:49:40.648Z,99.90
2018-06-28T17:52:09.941Z,99.90
2018-06-28T17:54:39.075Z,99.90
2018-06-28T17:57:08.172Z,99.90
2018-06-28T17:59:37.266Z,99.90
2018-06-28T18:02:06.372Z,99.90
2018-06-28T18:04:36.244Z,99.90
2018-06-28T18:07:05.359Z,99.90
2018-06-28T18:09:34.443Z,99.90
2018-06-28T18:12:03.578Z,99.90
2018-06-28T18:14:32.687Z,99.90
2018-06-28T18:17:02.591Z,99.90
2018-06-28T18:19:31.722Z,99.90
2018-06-28T18:22:02.356Z,99.90
2018-06-28T18:24:31.511Z,99.90
2018-06-28T18:27:00.591Z,99.90
2018-06-28T18:29:29.707Z,99.90
2018-06-28T18:31:58.866Z,99.90
2018-06-28T18:34:28.079Z,99.90
2018-06-28T18:36:57.260Z,99.90
2018-06-28T18:39:27.450Z,99.90
2018-06-28T18:41:56.566Z,99.90
2018-06-28T18:44:26.123Z,99.90
2018-06-28T18:46:55.234Z,99.90
2018-06-28T18:49:24.363Z,99.90
2018-06-28T18:51:54.140Z,99.90
2018-06-28T18:54:23.287Z,99.90
2018-06-28T18:56:52.445Z,99.90
2018-06-28T18:59:21.560Z,99.90
2018-06-28T19:01:50.757Z,99.90
2018-06-28T19:04:19.829Z,99.90
2018-06-28T19:06:48.946Z,99.90
2018-06-28T19:09:19.160Z,99.90
2018-06-28T19:11:48.732Z,99.90
2018-06-28T19:14:23.172Z,99.90
2018-06-28T19:16:55.151Z,99.90
2018-06-28T19:19:24.310Z,99.90
2018-06-28T19:21:58.606Z,99.90
2018-06-28T19:24:27.783Z,99.90
2018-06-28T19:26:56.906Z,99.90
2018-06-28T19:29:31.450Z,99.90
2018-06-28T19:32:05.870Z,99.90
2018-06-28T19:34:35.279Z,99.90
2018-06-28T19:37:05.155Z,99.90
2018-06-28T19:39:40.541Z,99.90
2018-06-28T19:42:15.146Z,99.90
2018-06-28T19:44:44.890Z,99.90
2018-06-28T19:47:14.683Z,99.90
2018-06-28T19:49:50.379Z,99.90
2018-06-28T19:52:27.159Z,99.90
2018-06-28T19:54:56.794Z,99.90
2018-06-28T19:59:55.562Z,99.90
2018-06-28T20:02:30.138Z,99.90
2018-06-28T20:04:59.993Z,99.90
2018-06-28T20:07:29.547Z,99.90
2018-06-28T20:09:58.734Z,99.90
2018-06-28T20:12:33.491Z,99.90
2018-06-28T20:15:08.587Z,99.90
2018-06-28T20:17:58.590Z,99.90
2018-06-28T20:20:27.698Z,99.90
2018-06-28T20:22:57.518Z,99.90
2018-06-28T20:25:27.039Z,99.90
2018-06-28T20:28:01.455Z,99.90
2018-06-28T20:30:35.801Z,99.90
2018-06-28T20:33:10.662Z,99.90
2018-06-28T20:35:40.211Z,99.90
2018-06-28T20:38:09.338Z,99.90
2018-06-28T20:40:38.663Z,99.90
2018-06-28T20:43:08.478Z,99.90
2018-06-28T20:45:37.559Z,99.90
2018-06-28T20:48:06.695Z,99.90
2018-06-28T20:50:37.115Z,99.90
2018-06-28T20:53:06.375Z,99.90
2018-06-28T20:55:35.805Z,99.90
2018-06-28T20:58:05.371Z,99.90
2018-06-28T21:00:34.474Z,99.90
2018-06-28T21:03:03.576Z,99.90
2018-06-28T21:05:32.730Z,99.90
2018-06-28T21:08:02.080Z,99.90
2018-06-28T21:10:31.231Z,99.90
2018-06-28T21:13:00.510Z,99.90
2018-06-28T21:15:29.618Z,99.90
2018-06-28T21:17:58.710Z,99.90
2018-06-28T21:20:27.831Z,99.90
2018-06-28T21:22:57.065Z,99.90
2018-06-28T21:25:26.958Z,99.90
2018-06-28T21:27:56.088Z,99.90
2018-06-28T21:30:25.222Z,99.90
2018-06-28T21:32:54.358Z,99.90
2018-06-28T21:35:24.264Z,99.90
2018-06-28T21:37:53.360Z,99.90
2018-06-28T21:40:22.464Z,99.90
2018-06-28T21:42:51.663Z,99.90
2018-06-28T21:45:21.190Z,99.90
2018-06-28T21:47:50.310Z,99.90
2018-06-28T21:50:20.174Z,99.90
2018-06-28T21:52:49.805Z,99.90
2018-06-28T21:55:19.234Z,99.90
2018-06-28T21:57:48.306Z,99.90
2018-06-28T22:00:34.450Z,99.90
2018-06-28T22:03:05.606Z,99.90
2018-06-28T22:05:35.353Z,99.90
2018-06-28T22:08:05.573Z,99.90
2018-06-28T22:10:35.071Z,99.90
2018-06-28T22:13:04.166Z,99.90
2018-06-28T22:15:34.153Z,99.90
2018-06-28T22:18:04.455Z,99.90
2018-06-28T22:20:34.363Z,99.90
2018-06-28T22:23:03.466Z,99.90
2018-06-28T22:25:32.580Z,99.90
2018-06-28T22:28:01.803Z,99.90
2018-06-28T22:30:31.283Z,99.90
2018-06-28T22:33:00.368Z,99.90
2018-06-28T22:35:30.088Z,99.90
2018-06-28T22:37:59.175Z,99.90
2018-06-28T22:40:28.289Z,99.90
2018-06-28T22:42:57.659Z,99.90
2018-06-28T22:45:26.751Z,99.90
2018-06-28T22:47:55.863Z,99.90
2018-06-28T22:50:25.010Z,99.90
2018-06-28T22:52:54.062Z,99.90
2018-06-28T22:55:23.939Z,99.90
2018-06-28T22:57:53.127Z,99.90
2018-06-28T23:00:31.346Z,99.90
2018-06-28T23:03:00.543Z,99.90
2018-06-28T23:05:30.403Z,99.90
2018-06-28T23:07:59.503Z,99.90
2018-06-28T23:10:28.618Z,99.90
2018-06-28T23:12:58.459Z,99.90
2018-06-28T23:15:27.582Z,99.90
2018-06-28T23:17:56.682Z,99.90
2018-06-28T23:20:25.776Z,99.90
2018-06-28T23:22:55.071Z,99.90
2018-06-28T23:25:24.195Z,99.90
2018-06-28T23:27:53.291Z,99.90
2018-06-28T23:30:22.373Z,99.90
2018-06-28T23:32:51.555Z,99.90
2018-06-28T23:35:21.486Z,99.90
2018-06-28T23:37:50.577Z,99.90
2018-06-28T23:40:19.759Z,99.90
2018-06-28T23:42:48.976Z,99.90
2018-06-28T23:45:17.994Z,99.90
2018-06-28T23:47:47.153Z,99.90
2018-06-28T23:50:16.214Z,99.90
2018-06-28T23:52:45.293Z,99.90
2018-06-28T23:55:14.425Z,99.90
2018-06-28T23:57:43.538Z,99.90
